Terminal Aerodrome Forecast
Issued by NWS Charleston, WV

Home | Current Version | Previous Version | Text Only | Print | Product List | Glossary On
Versions: 1 2 3 4 5 6 7 8 9 10 11 12 13 14 15 16 17 18 19 20 21 22 23 24
000
FTUS41 KRLX 040204 AAA
TAFEKN
TAF AMD
KEKN 040204Z 0402/0424 24006KT P6SM SCT050
     FM040400 22006KT P6SM VCTS BKN035CB
     FM040600 VRB03KT 5SM -SHRA BR BKN030
     FM041000 24006KT 5SM BR BKN010
     FM041400 27005KT P6SM BKN020
     FM041600 27006KT P6SM SCT030=

USA.gov is the U.S. government's official web portal to all federal, state and local government web resources and services.